Alpine, Pennsylvania
Current Conditions -  °F | °C
As of 3:56 AM on Friday 31 Oct 2014 (Local Time) from KCXY Reporting Station
Overcast Overcast  
Wind Chill: 48°   Ceiling: 5500
Heat Index: 48°   Visibility: 10mi
Dew Point: 38°   Wind: 3mph
Humidity: 68%   Direction: 80°E
Pressure: 30.01"   Gusts: NA
Location:  40.1328°N, 76.8833°W
Report Text: KCXY 310756Z AUTO 08003KT 10SM OVC055 09/03 A3001 RMK AO2 SLP166 T00890033
Loading
Personal Weather Stations






























Interactive Weather Map New forecast layout! Learn more

10-Day Weather Forecast

Advertisements
Track Severe Weather on mobile